createdAt,value
2022-10-24T00:01:45.859Z,17.30
2022-10-24T00:04:14.098Z,17.40
2022-10-24T00:06:42.904Z,17.40
2022-10-24T00:09:11.262Z,17.50
2022-10-24T00:11:42.723Z,17.50
2022-10-24T00:14:11.114Z,17.60
2022-10-24T00:16:40.735Z,17.60
2022-10-24T00:19:09.010Z,17.70
2022-10-24T00:21:37.267Z,17.60
2022-10-24T00:24:06.251Z,17.60
2022-10-24T00:26:35.113Z,17.60
2022-10-24T00:29:03.410Z,17.60
2022-10-24T00:31:32.318Z,17.60
2022-10-24T00:34:02.769Z,17.50
2022-10-24T00:36:31.140Z,17.50
2022-10-24T00:38:59.284Z,17.50
2022-10-24T00:41:30.014Z,17.50
2022-10-24T00:44:20.204Z,17.50
2022-10-24T00:46:52.734Z,17.50
2022-10-24T00:49:26.384Z,17.40
2022-10-24T00:51:59.856Z,17.40
2022-10-24T00:54:28.137Z,17.40
2022-10-24T00:57:04.956Z,17.40
2022-10-24T00:59:35.718Z,17.40
2022-10-24T01:02:04.571Z,17.30
2022-10-24T01:04:34.259Z,17.40
2022-10-24T01:07:23.713Z,17.40
2022-10-24T01:10:13.978Z,17.30
2022-10-24T01:12:52.857Z,17.30
2022-10-24T01:15:24.351Z,17.30
2022-10-24T01:18:00.998Z,17.40
2022-10-24T01:20:46.002Z,17.40
2022-10-24T01:23:44.693Z,17.40
2022-10-24T01:26:34.607Z,17.40
2022-10-24T01:29:16.751Z,17.40
2022-10-24T01:31:51.899Z,17.30
2022-10-24T01:34:28.179Z,17.30
2022-10-24T01:37:02.653Z,17.40
2022-10-24T01:39:36.980Z,17.30
2022-10-24T01:42:08.629Z,17.30
2022-10-24T01:44:40.722Z,17.20
2022-10-24T01:47:15.089Z,17.30
2022-10-24T01:49:47.203Z,17.30
2022-10-24T01:52:17.734Z,17.30
2022-10-24T01:54:48.103Z,17.20
2022-10-24T01:57:16.927Z,17.20
2022-10-24T01:59:47.927Z,17.20
2022-10-24T02:02:22.937Z,17.20
2022-10-24T02:04:57.242Z,17.20
2022-10-24T02:07:27.949Z,17.20
2022-10-24T02:10:00.912Z,17.20
2022-10-24T02:12:30.532Z,17.20
2022-10-24T02:15:03.804Z,17.20
2022-10-24T02:17:33.446Z,17.20
2022-10-24T02:20:02.273Z,17.20
2022-10-24T02:22:35.173Z,17.20
2022-10-24T02:25:05.798Z,17.10
2022-10-24T02:27:40.083Z,17.00
2022-10-24T02:30:12.374Z,16.90
2022-10-24T02:32:44.364Z,17.00
2022-10-24T02:35:15.271Z,16.90
2022-10-24T02:37:47.515Z,16.90
2022-10-24T02:40:18.175Z,16.90
2022-10-24T02:42:48.428Z,16.90
2022-10-24T02:45:17.504Z,16.90
2022-10-24T02:47:48.684Z,16.90
2022-10-24T02:50:17.145Z,17.00
2022-10-24T02:52:45.777Z,16.90
2022-10-24T02:55:14.197Z,16.90
2022-10-24T02:57:42.460Z,16.90
2022-10-24T03:00:11.954Z,16.90
2022-10-24T03:02:40.127Z,16.90
2022-10-24T03:05:10.393Z,16.90
2022-10-24T03:07:38.619Z,16.90
2022-10-24T03:10:07.456Z,16.90
2022-10-24T03:12:35.692Z,16.90
2022-10-24T03:15:04.587Z,16.90
2022-10-24T03:17:32.787Z,16.80
2022-10-24T03:20:01.021Z,16.80
2022-10-24T03:22:31.016Z,16.80
2022-10-24T03:25:01.886Z,16.80
2022-10-24T03:27:31.321Z,16.80
2022-10-24T03:29:59.591Z,16.80
2022-10-24T03:32:28.117Z,16.80
2022-10-24T03:34:56.855Z,16.70
2022-10-24T03:37:25.040Z,16.70
2022-10-24T03:39:54.657Z,16.70
2022-10-24T03:42:23.088Z,16.60
2022-10-24T03:44:51.360Z,16.50
2022-10-24T03:47:19.743Z,16.50
2022-10-24T03:49:47.977Z,16.60
2022-10-24T03:52:16.260Z,16.50
2022-10-24T03:54:44.772Z,16.50
2022-10-24T03:57:14.379Z,16.40
2022-10-24T03:59:42.690Z,16.40
2022-10-24T04:02:10.910Z,16.40
2022-10-24T04:04:39.131Z,16.40
2022-10-24T04:07:07.313Z,16.40
2022-10-24T04:09:35.757Z,16.40
2022-10-24T04:12:04.205Z,16.30
2022-10-24T04:14:33.836Z,16.30
2022-10-24T04:17:02.081Z,16.30
2022-10-24T04:19:30.324Z,16.30
2022-10-24T04:21:58.492Z,16.20
2022-10-24T04:24:27.116Z,16.20
2022-10-24T04:26:55.395Z,16.20
2022-10-24T04:29:23.739Z,16.20
2022-10-24T04:31:53.312Z,16.20
2022-10-24T04:34:21.523Z,16.20
2022-10-24T04:36:49.682Z,16.20
2022-10-24T04:39:18.115Z,16.10
2022-10-24T04:41:46.362Z,16.10
2022-10-24T04:44:14.581Z,16.20
2022-10-24T04:46:42.797Z,16.10
2022-10-24T04:49:12.404Z,16.10
2022-10-24T04:51:40.612Z,16.10
2022-10-24T04:54:09.032Z,16.20
2022-10-24T04:56:37.269Z,16.20
2022-10-24T04:59:05.600Z,16.20
2022-10-24T05:01:33.856Z,16.10
2022-10-24T05:06:38.377Z,16.10
2022-10-24T05:09:08.650Z,16.10
2022-10-24T05:11:36.825Z,16.10
2022-10-24T05:14:05.214Z,16.10
2022-10-24T05:16:33.406Z,16.10
2022-10-24T05:19:01.688Z,16.00
2022-10-24T05:21:30.919Z,16.10
2022-10-24T05:24:00.529Z,16.00
2022-10-24T05:26:28.754Z,16.10
2022-10-24T05:28:56.979Z,16.20
2022-10-24T05:31:25.196Z,16.20
2022-10-24T05:33:53.553Z,16.20
2022-10-24T05:36:21.770Z,16.30
2022-10-24T05:38:49.941Z,16.30
2022-10-24T05:41:19.491Z,16.30
2022-10-24T05:43:47.708Z,16.20
2022-10-24T05:46:15.907Z,16.10
2022-10-24T05:48:44.072Z,16.10
2022-10-24T05:51:12.477Z,16.00
2022-10-24T05:53:40.713Z,16.00
2022-10-24T05:56:09.956Z,16.00
2022-10-24T05:58:39.603Z,16.00
2022-10-24T06:01:07.928Z,15.90
2022-10-24T06:03:36.639Z,15.90
2022-10-24T06:06:06.264Z,15.90
2022-10-24T06:08:35.251Z,15.90
2022-10-24T06:11:04.036Z,15.80
2022-10-24T06:13:35.331Z,15.80
2022-10-24T06:16:07.809Z,15.80
2022-10-24T06:18:36.127Z,15.80
2022-10-24T06:21:06.917Z,15.80
2022-10-24T06:23:35.948Z,15.80
2022-10-24T06:26:10.027Z,15.80
2022-10-24T06:28:38.654Z,15.80
2022-10-24T06:31:08.577Z,15.70
2022-10-24T06:33:36.853Z,15.80
2022-10-24T06:36:09.341Z,15.80
2022-10-24T06:38:38.145Z,15.80
2022-10-24T06:41:07.560Z,15.70
2022-10-24T06:43:35.751Z,15.70
2022-10-24T06:46:08.733Z,15.70
2022-10-24T06:48:38.076Z,15.70
2022-10-24T06:51:07.111Z,15.70
2022-10-24T06:53:35.532Z,15.80
2022-10-24T06:56:06.475Z,15.80
2022-10-24T06:58:36.424Z,15.90
2022-10-24T07:01:11.597Z,15.90
2022-10-24T07:03:40.061Z,16.00
2022-10-24T07:06:09.548Z,16.10
2022-10-24T07:08:37.788Z,16.20
2022-10-24T07:11:06.278Z,16.30
2022-10-24T07:13:34.575Z,16.40
2022-10-24T07:16:02.887Z,16.40
2022-10-24T07:18:32.708Z,16.50
2022-10-24T07:21:03.559Z,16.60
2022-10-24T07:23:32.022Z,16.60
2022-10-24T07:26:03.767Z,16.60
2022-10-24T07:28:32.705Z,16.50
2022-10-24T07:31:01.454Z,16.50
2022-10-24T07:33:29.920Z,16.60
2022-10-24T07:35:59.576Z,16.40
2022-10-24T07:38:28.051Z,16.50
2022-10-24T07:40:56.312Z,16.50
2022-10-24T07:43:24.944Z,16.50
2022-10-24T07:45:53.248Z,16.60
2022-10-24T07:48:21.611Z,16.70
2022-10-24T07:50:51.098Z,16.60
2022-10-24T07:53:20.799Z,16.60
2022-10-24T07:55:49.093Z,16.80
2022-10-24T07:58:17.375Z,16.80
2022-10-24T08:00:47.224Z,16.80
2022-10-24T08:03:15.443Z,16.90
2022-10-24T08:05:43.729Z,16.90
2022-10-24T08:08:24.974Z,17.00
2022-10-24T08:11:01.960Z,17.00
2022-10-24T08:13:30.157Z,17.00
2022-10-24T08:15:58.452Z,17.00
2022-10-24T08:18:30.110Z,17.10
2022-10-24T08:21:00.440Z,17.20
2022-10-24T08:23:29.604Z,17.30
2022-10-24T08:25:57.796Z,17.40
2022-10-24T08:28:27.541Z,17.40
2022-10-24T08:30:59.772Z,17.50
2022-10-24T08:33:28.282Z,17.50
2022-10-24T08:36:00.841Z,17.50
2022-10-24T08:38:29.919Z,17.40
2022-10-24T08:40:58.907Z,17.40
2022-10-24T08:43:28.674Z,17.40
2022-10-24T08:46:04.588Z,17.40
2022-10-24T08:48:38.372Z,17.40
2022-10-24T08:51:18.030Z,17.50
2022-10-24T08:53:47.765Z,17.40
2022-10-24T08:56:16.090Z,17.50
2022-10-24T08:58:47.583Z,17.80
2022-10-24T09:01:22.649Z,17.90
2022-10-24T09:03:57.562Z,18.10
2022-10-24T09:06:30.372Z,18.40
2022-10-24T09:09:00.422Z,18.70
2022-10-24T09:11:40.572Z,18.80
2022-10-24T09:14:14.183Z,18.90
2022-10-24T09:16:43.529Z,19.00
2022-10-24T09:19:16.385Z,19.00
2022-10-24T09:21:45.817Z,18.90
2022-10-24T09:24:25.736Z,18.90
2022-10-24T09:26:54.215Z,19.10
2022-10-24T09:29:32.108Z,19.20
2022-10-24T09:32:00.753Z,19.60
2022-10-24T09:34:29.128Z,19.80
2022-10-24T09:36:57.532Z,19.90
2022-10-24T09:39:31.767Z,19.80
2022-10-24T09:42:01.621Z,19.70
2022-10-24T09:44:41.055Z,19.50
2022-10-24T09:47:25.067Z,19.30
2022-10-24T09:49:54.566Z,19.20
2022-10-24T09:52:25.612Z,19.20
2022-10-24T09:55:16.247Z,19.20
2022-10-24T09:57:45.031Z,19.10
2022-10-24T10:00:24.962Z,19.10
2022-10-24T10:03:02.078Z,19.10
2022-10-24T10:05:46.964Z,19.20
2022-10-24T10:08:20.882Z,19.10
2022-10-24T10:10:59.205Z,19.20
2022-10-24T10:13:28.605Z,19.40
2022-10-24T10:16:00.713Z,19.50
2022-10-24T10:18:33.691Z,19.50
2022-10-24T10:21:09.607Z,19.60
2022-10-24T10:23:40.188Z,19.70
2022-10-24T10:26:22.450Z,19.80
2022-10-24T10:28:57.452Z,19.70
2022-10-24T10:31:34.624Z,19.70
2022-10-24T10:34:14.058Z,19.70
2022-10-24T10:36:57.242Z,19.80
2022-10-24T10:39:44.408Z,19.90
2022-10-24T10:42:18.259Z,19.80
2022-10-24T10:45:00.313Z,19.60
2022-10-24T10:47:37.987Z,19.60
2022-10-24T10:50:27.700Z,19.40
2022-10-24T10:53:03.925Z,19.20
2022-10-24T10:55:38.925Z,19.10
2022-10-24T10:58:20.583Z,19.20
2022-10-24T11:00:56.397Z,19.40
2022-10-24T11:03:36.047Z,19.50
2022-10-24T11:06:21.474Z,19.50
2022-10-24T11:09:08.123Z,19.50
2022-10-24T11:11:41.079Z,19.70
2022-10-24T11:14:23.533Z,19.70
2022-10-24T11:16:54.004Z,19.80
2022-10-24T11:19:28.483Z,19.80
2022-10-24T11:21:58.250Z,19.60
2022-10-24T11:24:27.048Z,19.40
2022-10-24T11:27:03.184Z,19.20
2022-10-24T11:29:39.187Z,19.10
2022-10-24T11:32:17.358Z,19.10
2022-10-24T11:34:52.848Z,19.20
2022-10-24T11:37:27.875Z,19.40
2022-10-24T11:39:59.211Z,19.60
2022-10-24T11:42:32.264Z,19.70
2022-10-24T11:45:06.682Z,19.80
2022-10-24T11:48:02.183Z,20.00
2022-10-24T11:50:37.017Z,20.00
2022-10-24T11:53:17.043Z,20.10
2022-10-24T11:55:48.759Z,20.20
2022-10-24T11:58:21.674Z,20.20
2022-10-24T12:01:16.907Z,20.10
2022-10-24T12:04:09.208Z,20.10
2022-10-24T12:07:05.322Z,20.00
2022-10-24T12:09:51.754Z,19.90
2022-10-24T12:12:37.490Z,19.90
2022-10-24T12:15:27.252Z,19.70
2022-10-24T12:18:09.785Z,19.70
2022-10-24T12:20:38.660Z,19.60
2022-10-24T12:23:08.657Z,19.50
2022-10-24T12:25:38.594Z,19.30
2022-10-24T12:28:09.541Z,19.10
2022-10-24T12:30:38.142Z,19.10
2022-10-24T12:33:12.755Z,19.00
2022-10-24T12:35:51.859Z,19.00
2022-10-24T12:39:09.484Z,19.10
2022-10-24T12:41:45.016Z,19.30
2022-10-24T12:44:51.524Z,19.60
2022-10-24T12:47:38.546Z,19.80
2022-10-24T12:50:54.866Z,19.80
2022-10-24T12:54:02.196Z,20.10
2022-10-24T12:56:33.588Z,20.40
2022-10-24T12:59:20.049Z,20.40
2022-10-24T13:01:49.766Z,20.50
2022-10-24T13:04:52.628Z,20.40
2022-10-24T13:07:30.736Z,20.50
2022-10-24T13:10:15.729Z,20.50
2022-10-24T13:12:57.730Z,20.60
2022-10-24T13:15:32.753Z,20.70
2022-10-24T13:18:13.256Z,20.70
2022-10-24T13:20:45.149Z,20.60
2022-10-24T13:23:17.913Z,20.50
2022-10-24T13:25:47.559Z,20.70
2022-10-24T13:28:44.153Z,20.90
2022-10-24T13:31:41.834Z,21.10
2022-10-24T13:34:42.726Z,21.30
2022-10-24T13:37:21.143Z,21.40
2022-10-24T13:39:53.073Z,21.30
2022-10-24T13:42:32.961Z,21.20
2022-10-24T13:45:19.483Z,21.30
2022-10-24T13:47:52.780Z,21.30
2022-10-24T13:50:24.610Z,21.30
2022-10-24T13:52:57.764Z,21.30
2022-10-24T13:55:27.749Z,21.50
2022-10-24T13:58:00.568Z,21.60
2022-10-24T14:00:32.856Z,21.50
2022-10-24T14:03:04.260Z,21.70
2022-10-24T14:05:37.215Z,21.50
2022-10-24T14:08:09.575Z,21.40
2022-10-24T14:10:39.451Z,21.10
2022-10-24T14:13:07.803Z,21.00
2022-10-24T14:15:37.353Z,20.70
2022-10-24T14:18:14.256Z,20.50
2022-10-24T14:20:43.298Z,20.30
2022-10-24T14:23:25.676Z,20.10
2022-10-24T14:25:57.393Z,20.00
2022-10-24T14:28:29.228Z,19.80
2022-10-24T14:31:01.260Z,19.70
2022-10-24T14:33:31.324Z,19.60
2022-10-24T14:36:02.738Z,19.60
2022-10-24T14:38:31.633Z,19.70
2022-10-24T14:41:09.508Z,19.70
2022-10-24T14:43:41.954Z,19.60
2022-10-24T14:46:28.005Z,19.60
2022-10-24T14:48:56.357Z,19.70
2022-10-24T14:51:31.143Z,19.70
2022-10-24T14:54:02.521Z,19.60
2022-10-24T14:56:34.340Z,19.70
2022-10-24T14:59:06.398Z,19.80
2022-10-24T15:01:36.152Z,19.70
2022-10-24T15:04:06.405Z,19.80
2022-10-24T15:06:40.229Z,19.80
2022-10-24T15:09:18.222Z,19.80
2022-10-24T15:11:48.092Z,19.90
2022-10-24T15:14:39.124Z,19.90
2022-10-24T15:17:31.482Z,19.70
2022-10-24T15:20:02.878Z,19.60
2022-10-24T15:22:34.720Z,19.50
2022-10-24T15:25:06.273Z,19.30
2022-10-24T15:27:41.398Z,19.10
2022-10-24T15:30:15.249Z,19.00
2022-10-24T15:32:45.588Z,18.90
2022-10-24T15:35:14.365Z,18.80
2022-10-24T15:37:53.328Z,18.70
2022-10-24T15:40:23.624Z,18.60
2022-10-24T15:42:51.881Z,18.60
2022-10-24T15:45:20.209Z,18.50
2022-10-24T15:47:50.800Z,18.40
2022-10-24T15:52:57.445Z,18.30
2022-10-24T15:55:27.947Z,18.30
2022-10-24T15:57:57.064Z,18.20
2022-10-24T16:00:26.009Z,18.20
2022-10-24T16:03:01.520Z,18.20
2022-10-24T16:05:35.049Z,18.20
2022-10-24T16:08:03.372Z,18.20
2022-10-24T16:10:31.673Z,18.20
2022-10-24T16:12:59.884Z,18.20
2022-10-24T16:18:07.360Z,18.20
2022-10-24T16:20:35.891Z,18.20
2022-10-24T16:23:04.742Z,18.10
2022-10-24T16:25:35.804Z,18.20
2022-10-24T16:28:04.501Z,18.10
2022-10-24T16:30:34.535Z,18.10
2022-10-24T16:33:03.640Z,18.00
2022-10-24T16:35:36.419Z,18.00
2022-10-24T16:38:05.991Z,18.10
2022-10-24T16:43:15.065Z,17.80
2022-10-24T16:45:43.774Z,17.80
2022-10-24T16:48:12.234Z,17.70
2022-10-24T16:50:46.466Z,17.60
2022-10-24T16:53:18.211Z,17.60
2022-10-24T16:55:48.517Z,17.40
2022-10-24T16:58:16.934Z,17.30
2022-10-24T17:00:46.289Z,17.30
2022-10-24T17:03:14.584Z,17.20
2022-10-24T17:08:14.892Z,17.10
2022-10-24T17:10:43.089Z,17.00
2022-10-24T17:13:11.269Z,17.00
2022-10-24T17:15:40.133Z,16.90
2022-10-24T17:18:09.034Z,16.70
2022-10-24T17:20:37.357Z,16.60
2022-10-24T17:23:07.644Z,16.60
2022-10-24T17:25:36.009Z,16.50
2022-10-24T17:28:04.586Z,16.40
2022-10-24T17:30:33.325Z,16.30
2022-10-24T17:33:02.117Z,16.20
2022-10-24T17:35:30.923Z,16.20
2022-10-24T17:38:12.779Z,16.10
2022-10-24T17:40:43.688Z,16.10
2022-10-24T17:43:19.137Z,16.00
2022-10-24T17:45:48.040Z,16.00
2022-10-24T17:48:17.059Z,16.00
2022-10-24T17:50:45.912Z,15.90
2022-10-24T17:53:16.286Z,15.90
2022-10-24T17:55:47.219Z,15.90
2022-10-24T17:58:17.253Z,15.90
2022-10-24T18:00:46.408Z,15.80
2022-10-24T18:03:15.443Z,15.80
2022-10-24T18:05:43.756Z,15.80
2022-10-24T18:08:16.324Z,15.80
2022-10-24T18:10:45.402Z,15.80
2022-10-24T18:13:14.609Z,15.80
2022-10-24T18:15:42.919Z,15.80
2022-10-24T18:18:11.213Z,15.80
2022-10-24T18:20:39.462Z,15.80
2022-10-24T18:23:07.679Z,15.70
2022-10-24T18:25:37.823Z,15.80
2022-10-24T18:28:06.329Z,15.80
2022-10-24T18:30:36.220Z,15.80
2022-10-24T18:33:04.562Z,15.70
2022-10-24T18:35:34.078Z,15.70
2022-10-24T18:38:02.366Z,15.70
2022-10-24T18:40:33.370Z,15.60
2022-10-24T18:43:05.639Z,15.60
2022-10-24T18:45:35.738Z,15.60
2022-10-24T18:48:04.603Z,15.60
2022-10-24T18:50:33.071Z,15.60
2022-10-24T18:53:05.918Z,15.50
2022-10-24T18:55:35.928Z,15.50
2022-10-24T18:58:05.923Z,15.50
2022-10-24T19:00:38.068Z,15.50
2022-10-24T19:03:17.934Z,15.50
2022-10-24T19:05:54.601Z,15.50
2022-10-24T19:08:25.481Z,15.40
2022-10-24T19:10:56.256Z,15.40
2022-10-24T19:13:27.751Z,15.50
2022-10-24T19:16:00.100Z,15.60
2022-10-24T19:18:30.438Z,15.60
2022-10-24T19:21:00.110Z,15.60
2022-10-24T19:23:28.489Z,15.60
2022-10-24T19:25:56.740Z,15.60
2022-10-24T19:28:26.406Z,15.50
2022-10-24T19:30:54.956Z,15.40
2022-10-24T19:33:27.814Z,15.40
2022-10-24T19:35:56.280Z,15.30
2022-10-24T19:38:24.759Z,15.30
2022-10-24T19:40:54.774Z,15.30
2022-10-24T19:43:26.041Z,15.20
2022-10-24T19:48:49.006Z,15.20
2022-10-24T19:51:18.889Z,15.20
2022-10-24T19:53:49.406Z,15.20
2022-10-24T19:56:24.061Z,15.10
2022-10-24T19:58:56.229Z,15.20
2022-10-24T20:01:27.843Z,15.10
2022-10-24T20:03:57.868Z,15.00
2022-10-24T20:06:27.229Z,15.00
2022-10-24T20:08:55.523Z,14.90
2022-10-24T20:11:24.375Z,14.90
2022-10-24T20:13:52.885Z,14.90
2022-10-24T20:16:21.349Z,14.90
2022-10-24T20:18:50.979Z,14.80
2022-10-24T20:21:19.935Z,14.80
2022-10-24T20:23:50.463Z,14.80
2022-10-24T20:26:23.204Z,14.80
2022-10-24T20:28:53.484Z,14.80
2022-10-24T20:31:24.779Z,14.80
2022-10-24T20:33:54.381Z,14.80
2022-10-24T20:36:22.598Z,14.80
2022-10-24T20:38:50.811Z,14.80
2022-10-24T20:41:19.049Z,14.70
2022-10-24T20:43:47.311Z,14.70
2022-10-24T20:46:15.544Z,14.80
2022-10-24T20:48:43.661Z,14.70
2022-10-24T20:51:15.158Z,14.70
2022-10-24T20:53:44.252Z,14.70
2022-10-24T20:56:14.174Z,14.70
2022-10-24T20:58:44.124Z,14.80
2022-10-24T21:01:14.482Z,14.70
2022-10-24T21:03:43.535Z,14.70
2022-10-24T21:06:19.283Z,14.80
2022-10-24T21:08:48.986Z,14.80
2022-10-24T21:11:20.737Z,14.90
2022-10-24T21:13:48.904Z,14.90
2022-10-24T21:16:17.137Z,14.90
2022-10-24T21:18:45.366Z,14.90
2022-10-24T21:21:16.999Z,14.90
2022-10-24T21:23:45.388Z,15.00
2022-10-24T21:26:15.013Z,15.00
2022-10-24T21:28:43.199Z,15.00
2022-10-24T21:31:12.890Z,15.00
2022-10-24T21:33:41.611Z,15.00
2022-10-24T21:36:11.849Z,15.00
2022-10-24T21:38:41.468Z,14.90
2022-10-24T21:41:11.205Z,14.90
2022-10-24T21:43:41.189Z,14.90
2022-10-24T21:46:11.445Z,14.90
2022-10-24T21:48:40.606Z,14.90
2022-10-24T21:51:11.431Z,14.90
2022-10-24T21:53:43.112Z,14.90
2022-10-24T21:56:16.914Z,14.90
2022-10-24T21:58:48.492Z,14.80
2022-10-24T22:01:19.094Z,14.80
2022-10-24T22:03:47.847Z,14.80
2022-10-24T22:06:18.051Z,14.90
2022-10-24T22:08:49.454Z,14.90
2022-10-24T22:11:19.583Z,14.80
2022-10-24T22:13:48.216Z,14.80
2022-10-24T22:16:18.153Z,14.80
2022-10-24T22:18:46.866Z,14.80
2022-10-24T22:21:21.651Z,14.80
2022-10-24T22:23:51.288Z,14.80
2022-10-24T22:26:19.574Z,14.80
2022-10-24T22:28:47.874Z,14.70
2022-10-24T22:31:17.659Z,14.60
2022-10-24T22:33:46.190Z,14.60
2022-10-24T22:36:20.844Z,14.60
2022-10-24T22:38:54.985Z,14.60
2022-10-24T22:41:24.088Z,14.60
2022-10-24T22:43:52.973Z,14.60
2022-10-24T22:46:33.837Z,14.60
2022-10-24T22:49:07.686Z,14.60
2022-10-24T22:51:36.426Z,14.60
2022-10-24T22:54:06.832Z,14.50
2022-10-24T22:56:36.778Z,14.60
2022-10-24T22:59:05.396Z,14.50
2022-10-24T23:01:43.430Z,14.50
2022-10-24T23:04:22.057Z,14.60
2022-10-24T23:06:55.371Z,14.50
2022-10-24T23:09:24.999Z,14.50
2022-10-24T23:11:53.937Z,14.50
2022-10-24T23:14:22.743Z,14.40
2022-10-24T23:16:57.184Z,14.40
2022-10-24T23:19:27.416Z,14.50
2022-10-24T23:21:58.253Z,14.50
2022-10-24T23:24:28.443Z,14.40
2022-10-24T23:27:24.146Z,14.40
2022-10-24T23:29:52.884Z,14.40
2022-10-24T23:32:23.419Z,14.30
2022-10-24T23:34:52.815Z,14.30
2022-10-24T23:37:33.350Z,14.30
2022-10-24T23:40:12.948Z,14.30
2022-10-24T23:42:41.647Z,14.30
2022-10-24T23:45:13.635Z,14.30
2022-10-24T23:48:02.225Z,14.30
2022-10-24T23:50:35.816Z,14.30
2022-10-24T23:53:24.344Z,14.40
2022-10-24T23:55:54.643Z,14.30
2022-10-24T23:58:23.073Z,14.30
